Time;durP1;ratioP1;P1;durP2;ratioP2;P2;SDS_P1;SDS_P2;PMS_P1;PMS_P2;Temp;Humidity;BMP_temperature;BMP_pressure;BME280_temperature;BME280_humidity;BME280_pressure;Samples;Min_cycle;Max_cycle;Signal;HPM_P1;HPM_P2
2022/04/09 00:00:53;;;;;;;11.43;7.40;;;2.50;1.00;;;;;;6120948;23;20594;-89
2022/04/09 00:03:36;;;;;;;11.87;7.97;;;2.50;1.00;;;;;;6121490;23;20151;-87
2022/04/09 00:09:27;;;;;;;11.70;6.50;;;2.50;20.20;;;;;;6192751;23;20200;-88
2022/04/09 00:12:13;;;;;;;10.93;6.30;;;2.40;22.20;;;;;;6165177;23;20228;-90
2022/04/09 00:15:08;;;;;;;10.50;7.50;;;2.40;6.10;;;;;;6242500;23;20224;-88
2022/04/09 00:18:12;;;;;;;;;;;;;;;;;;;;;
2022/04/09 00:24:04;;;;;;;9.10;5.50;;;2.20;1.00;;;;;;6239434;23;20196;-88
2022/04/09 00:33:13;;;;;;;10.17;7.40;;;2.10;97.80;;;;;;6238735;23;20149;-91
2022/04/09 00:36:11;;;;;;;8.23;6.13;;;2.10;96.70;;;;;;6242759;23;20168;-90
2022/04/09 00:51:54;;;;;;;12.97;7.27;;;2.00;99.90;;;;;;6121470;23;20225;-90
2022/04/09 00:58:17;;;;;;;10.57;5.80;;;2.00;99.90;;;;;;6116463;23;20163;-88
2022/04/09 01:01:13;;;;;;;9.57;5.80;;;2.00;99.90;;;;;;6112202;23;20178;-89
2022/04/09 01:06:41;;;;;;;9.47;5.90;;;2.10;99.90;;;;;;6101726;23;20174;-84
2022/04/09 01:09:34;;;;;;;8.47;5.20;;;2.20;99.90;;;;;;6093628;23;20214;-86
2022/04/09 01:12:19;;;;;;;7.93;5.20;;;2.20;99.90;;;;;;6121413;23;20218;-88
2022/04/09 01:14:57;;;;;;;8.30;5.83;;;2.30;99.90;;;;;;6121547;23;20188;-90
2022/04/09 01:17:57;;;;;;;10.20;5.43;;;2.30;99.90;;;;;;6141709;23;20162;-91
2022/04/09 01:37:54;;;;;;;;;;;;;;;;;;;;;
2022/04/09 01:47:23;;;;;;;9.90;5.63;;;2.30;1.00;;;;;;6216021;23;20177;-88
2022/04/09 01:50:15;;;;;;;7.60;5.80;;;2.30;1.00;;;;;;6241683;23;20148;-90
2022/04/09 01:53:07;;;;;;;9.80;6.00;;;2.30;1.00;;;;;;6242765;23;20221;-90
2022/04/09 02:01:59;;;;;;;9.67;6.37;;;2.30;1.00;;;;;;6243897;23;20173;-87
2022/04/09 02:05:10;;;;;;;9.00;7.00;;;2.30;1.00;;;;;;6243446;23;20170;-91
2022/04/09 02:08:05;;;;;;;9.90;7.43;;;2.20;1.00;;;;;;6242889;23;20160;-91
2022/04/09 02:10:55;;;;;;;11.87;7.40;;;2.20;1.00;;;;;;6201789;23;20153;-89
2022/04/09 02:16:32;;;;;;;11.97;8.50;;;2.20;1.00;;;;;;6239994;23;20164;-90
2022/04/09 02:22:41;;;;;;;9.93;6.03;;;2.10;1.00;;;;;;6123459;23;20186;-89
2022/04/09 02:31:51;;;;;;;9.37;6.30;;;2.00;1.00;;;;;;6181350;23;20177;-90
2022/04/09 02:38:13;;;;;;;;;;;;;;;;;;;;;
2022/04/09 02:44:57;;;;;;;13.63;8.53;;;1.90;1.00;;;;;;6183449;23;20162;-89
2022/04/09 02:54:16;;;;;;;11.03;7.07;;;1.90;1.00;;;;;;6162751;23;20184;-91
2022/04/09 02:57:37;;;;;;;11.27;7.03;;;1.90;1.00;;;;;;6183263;23;20166;-90
2022/04/09 03:04:04;;;;;;;6.93;5.50;;;1.90;1.00;;;;;;5982155;24;20196;-90
2022/04/09 03:10:45;;;;;;;9.53;6.07;;;1.90;1.00;;;;;;5879095;24;20180;-90
2022/04/09 03:17:09;;;;;;;8.87;4.73;;;1.90;1.00;;;;;;6169855;23;20169;-92
2022/04/09 03:23:21;;;;;;;13.07;8.63;;;1.90;1.00;;;;;;6172288;23;20214;-89
2022/04/09 03:29:49;;;;;;;7.90;5.43;;;1.90;1.00;;;;;;6134590;23;20169;-92
2022/04/09 03:43:08;;;;;;;10.00;5.87;;;1.90;1.00;;;;;;5978506;24;20197;-90
2022/04/09 03:46:08;;;;;;;7.47;5.17;;;1.90;1.00;;;;;;5979605;24;20214;-93
2022/04/09 03:55:04;;;;;;;10.83;6.00;;;1.80;1.00;;;;;;6026927;23;20217;-89
2022/04/09 03:58:40;;;;;;;10.83;6.07;;;1.80;1.00;;;;;;6181432;23;20170;-90
2022/04/09 04:11:34;;;;;;;14.77;5.17;;;1.80;1.00;;;;;;6072223;23;20737;-90
2022/04/09 04:17:37;;;;;;;11.30;5.97;;;1.80;1.00;;;;;;6040203;23;20163;-89
2022/04/09 04:20:44;;;;;;;9.27;6.23;;;1.80;1.00;;;;;;6091791;23;20232;-89
2022/04/09 04:23:12;;;;;;;11.83;6.33;;;1.70;73.60;;;;;;6061061;23;20223;-88
2022/04/09 04:26:02;;;;;;;8.63;5.33;;;1.80;25.60;;;;;;6136742;23;20202;-88
2022/04/09 04:29:00;;;;;;;9.47;6.20;;;1.80;95.90;;;;;;6179927;23;20225;-93
2022/04/09 04:32:07;;;;;;;13.50;9.50;;;1.80;99.90;;;;;;6177758;23;20212;-87
2022/04/09 04:38:03;;;;;;;9.30;7.40;;;1.80;99.90;;;;;;6061404;23;20173;-89
2022/04/09 04:43:44;;;;;;;13.50;5.60;;;1.90;99.90;;;;;;6174092;23;20166;-87
2022/04/09 04:46:16;;;;;;;11.00;5.67;;;2.00;99.90;;;;;;6173485;23;20171;-89
2022/04/09 04:49:01;;;;;;;10.57;5.33;;;2.00;99.90;;;;;;6179498;23;20166;-91
2022/04/09 04:51:42;;;;;;;9.93;5.07;;;2.10;99.90;;;;;;6179597;23;20174;-93
2022/04/09 04:54:57;;;;;;;10.57;6.03;;;2.20;99.90;;;;;;6179414;23;20193;-89
2022/04/09 05:10:29;;;;;;;14.73;8.33;;;2.70;1.00;;;;;;6179989;23;20160;-88
2022/04/09 05:13:10;;;;;;;25.03;10.97;;;2.90;1.00;;;;;;6176402;23;20285;-86
2022/04/09 05:15:47;;;;;;;13.37;7.10;;;3.40;99.90;;;;;;6180256;23;20178;-92
2022/04/09 05:18:41;;;;;;;20.30;7.60;;;3.80;99.90;;;;;;6178839;23;20158;-93
2022/04/09 05:27:48;;;;;;;48.40;12.27;;;5.60;99.90;;;;;;6135291;23;20164;-94
2022/04/09 05:30:19;;;;;;;40.87;9.63;;;6.60;1.00;;;;;;6149292;23;20170;-92
2022/04/09 05:32:47;;;;;;;54.67;13.30;;;7.40;1.00;;;;;;6147694;23;20250;-89
2022/04/09 05:35:54;;;;;;;;;;;;;;;;;;;;;
2022/04/09 05:38:21;;;;;;;56.43;15.60;;;9.30;1.00;;;;;;6132210;23;20159;-89
2022/04/09 05:41:07;;;;;;;22.27;7.57;;;10.10;1.00;;;;;;6148452;23;20696;-88
2022/04/09 05:43:41;;;;;;;196.90;43.83;;;10.50;1.00;;;;;;6142225;23;20538;-89
2022/04/09 05:46:24;;;;;;;60.93;15.77;;;10.80;1.00;;;;;;6142114;23;20161;-90
2022/04/09 05:48:53;;;;;;;193.20;45.30;;;11.30;99.90;;;;;;6102366;23;23003;-88
2022/04/09 05:51:43;;;;;;;90.70;26.53;;;12.00;99.90;;;;;;6108330;23;20186;-90
2022/04/09 05:54:21;;;;;;;37.50;11.10;;;12.80;1.00;;;;;;6106403;23;20167;-91
2022/04/09 05:57:08;;;;;;;55.28;16.60;;;13.50;1.00;;;;;;6105958;23;20171;-89
2022/04/09 05:59:44;;;;;;;42.08;13.65;;;14.00;99.90;;;;;;6118136;23;20177;-90
2022/04/09 06:02:13;;;;;;;122.10;37.37;;;14.30;99.90;;;;;;6108354;23;20178;-87
2022/04/09 06:04:40;;;;;;;101.15;32.30;;;14.60;99.90;;;;;;6117002;23;20172;-87
2022/04/09 06:07:15;;;;;;;143.27;37.88;;;15.00;99.90;;;;;;6116539;23;20219;-86
2022/04/09 06:10:03;;;;;;;130.18;43.13;;;15.40;1.00;;;;;;6118463;23;20167;-91
2022/04/09 06:12:30;;;;;;;34.28;12.82;;;15.60;1.00;;;;;;6093033;23;20270;-85
2022/04/09 06:17:58;;;;;;;123.88;46.92;;;15.70;1.00;;;;;;6110716;23;20188;-89
2022/04/09 06:20:25;;;;;;;49.03;21.48;;;15.30;1.00;;;;;;6095775;23;20167;-88
2022/04/09 06:22:55;;;;;;;46.13;20.45;;;15.00;1.00;;;;;;6100005;23;20197;-85
2022/04/09 06:25:24;;;;;;;46.38;21.98;;;14.90;1.00;;;;;;6100430;23;20164;-87
2022/04/09 06:27:51;;;;;;;50.10;22.23;;;14.70;1.00;;;;;;6096181;23;20171;-86
2022/04/09 06:30:18;;;;;;;58.00;26.75;;;14.30;1.00;;;;;;6100820;23;20220;-88
2022/04/09 06:32:46;;;;;;;50.33;20.95;;;14.30;1.00;;;;;;6095945;23;20193;-88
2022/04/09 06:35:14;;;;;;;89.88;36.45;;;14.20;1.00;;;;;;6104160;23;20170;-89
2022/04/09 06:38:02;;;;;;;49.35;19.38;;;13.90;1.00;;;;;;6111551;23;20175;-87
2022/04/09 06:40:29;;;;;;;38.08;15.70;;;13.80;1.00;;;;;;6117719;23;20522;-87
2022/04/09 06:43:42;;;;;;;;;;;;;;;;;;;;;
2022/04/09 06:46:36;;;;;;;60.65;26.83;;;14.20;1.00;;;;;;6112032;23;20195;-91
2022/04/09 06:49:06;;;;;;;42.75;18.25;;;14.40;1.00;;;;;;6094604;23;20175;-84
2022/04/09 06:51:42;;;;;;;13.65;7.82;;;14.70;1.00;;;;;;6101896;23;20172;-88
2022/04/09 06:54:10;;;;;;;12.30;7.47;;;14.90;1.00;;;;;;6112551;23;20160;-85
2022/04/09 06:56:51;;;;;;;11.05;6.00;;;15.10;1.00;;;;;;6111242;23;20167;-86
2022/04/09 06:59:19;;;;;;;15.57;6.93;;;14.70;1.00;;;;;;6115264;23;20178;-89
2022/04/09 07:01:45;;;;;;;9.45;4.80;;;14.40;1.00;;;;;;6113106;23;20176;-83
2022/04/09 07:04:14;;;;;;;8.55;3.55;;;14.40;1.00;;;;;;6112762;23;20227;-84
2022/04/09 07:06:46;;;;;;;8.63;4.00;;;14.60;1.00;;;;;;6106563;23;20170;-87
2022/04/09 07:09:27;;;;;;;6.93;2.80;;;14.90;1.00;;;;;;6121214;23;20215;-88
2022/04/09 07:14:46;;;;;;;6.32;2.85;;;15.30;1.00;;;;;;6073703;23;20168;-89
2022/04/09 07:17:36;;;;;;;9.45;3.53;;;15.70;1.00;;;;;;6119378;23;20171;-88
2022/04/09 07:20:12;;;;;;;8.48;3.33;;;16.10;1.00;;;;;;6120018;23;20168;-91
2022/04/09 07:22:47;;;;;;;6.93;3.80;;;16.20;1.00;;;;;;6117800;23;20167;-88
2022/04/09 07:25:28;;;;;;;16.38;9.98;;;16.40;1.00;;;;;;6121245;23;20143;-87
2022/04/09 07:28:12;;;;;;;7.90;4.38;;;16.00;1.00;;;;;;6120949;23;20162;-87
2022/04/09 07:30:57;;;;;;;6.65;4.03;;;16.10;1.00;;;;;;6121262;23;20603;-87
2022/04/09 07:33:30;;;;;;;7.15;3.55;;;16.50;1.00;;;;;;6121552;23;20215;-90
2022/04/09 07:36:09;;;;;;;7.82;3.03;;;16.70;1.00;;;;;;6121255;23;20152;-89
2022/04/09 07:38:51;;;;;;;11.35;3.67;;;16.20;1.00;;;;;;6116930;23;20160;-85
2022/04/09 07:44:46;;;;;;;5.97;3.28;;;16.20;1.00;;;;;;6022994;23;20166;-89
2022/04/09 07:47:13;;;;;;;6.72;2.78;;;16.10;1.00;;;;;;6012917;23;20607;-83
2022/04/09 07:49:40;;;;;;;8.20;2.60;;;16.50;1.00;;;;;;6096461;23;20196;-84
2022/04/09 07:52:14;;;;;;;;;;;17.10;1.00;;;;;;6103970;23;20117;-89
2022/04/09 07:54:42;;;;;;;4.47;1.70;;;17.40;1.00;;;;;;6108581;23;20204;-85
2022/04/09 07:57:17;;;;;;;7.90;2.30;;;17.60;1.00;;;;;;6112578;23;20197;-86
2022/04/09 07:59:44;;;;;;;4.25;2.40;;;17.90;1.00;;;;;;6111258;23;20591;-87
2022/04/09 08:02:11;;;;;;;4.18;1.52;;;17.90;1.00;;;;;;6113095;23;20175;-88
2022/04/09 08:04:38;;;;;;;6.47;1.92;;;18.00;1.00;;;;;;6105081;23;20236;-89
2022/04/09 08:07:15;;;;;;;4.63;1.92;;;18.00;1.00;;;;;;6113761;23;20167;-93
2022/04/09 08:09:57;;;;;;;6.13;1.92;;;18.30;1.00;;;;;;6113123;23;20132;-93
2022/04/09 08:12:37;;;;;;;4.97;2.05;;;18.50;1.00;;;;;;6111330;23;20165;-90
2022/04/09 08:15:04;;;;;;;4.88;1.70;;;18.80;1.00;;;;;;6109543;23;20168;-88
2022/04/09 08:17:31;;;;;;;6.40;1.80;;;18.60;1.00;;;;;;6105367;23;20171;-89
2022/04/09 08:20:16;;;;;;;5.32;1.70;;;18.70;1.00;;;;;;6101265;23;20171;-91
2022/04/09 08:23:00;;;;;;;5.13;1.50;;;18.70;1.00;;;;;;6100132;23;20654;-86
2022/04/09 08:25:27;;;;;;;6.25;1.48;;;18.80;1.00;;;;;;6099109;23;20219;-87
2022/04/09 08:28:13;;;;;;;3.40;1.65;;;18.70;1.00;;;;;;6109746;23;20207;-89
2022/04/09 08:30:41;;;;;;;5.70;2.33;;;18.70;1.00;;;;;;6101381;23;20155;-90
2022/04/09 08:33:10;;;;;;;3.22;1.88;;;18.80;1.00;;;;;;6097856;23;20188;-88
2022/04/09 08:35:55;;;;;;;3.53;1.63;;;19.00;1.00;;;;;;6106784;23;20195;-90
2022/04/09 08:38:24;;;;;;;3.88;1.50;;;19.30;1.00;;;;;;6106488;23;20170;-85
2022/04/09 08:40:52;;;;;;;4.70;1.60;;;19.30;1.00;;;;;;6101276;23;20482;-84
2022/04/09 08:43:40;;;;;;;4.78;2.78;;;19.50;1.00;;;;;;6106720;23;20166;-90
2022/04/09 08:46:07;;;;;;;7.90;3.88;;;19.30;1.00;;;;;;6096623;23;20162;-84
2022/04/09 08:48:37;;;;;;;15.80;8.55;;;18.50;1.00;;;;;;6100887;23;20223;-84
2022/04/09 08:51:11;;;;;;;19.05;10.32;;;18.20;1.00;;;;;;6103652;23;20570;-86
2022/04/09 08:53:57;;;;;;;16.92;8.77;;;17.60;1.00;;;;;;6120011;23;20555;-93
2022/04/09 08:56:24;;;;;;;42.05;16.25;;;17.70;1.00;;;;;;6112418;23;20178;-83
2022/04/09 08:59:03;;;;;;;58.03;24.02;;;18.10;1.00;;;;;;6104048;23;20170;-89
2022/04/09 09:01:47;;;;;;;28.67;12.82;;;18.20;1.00;;;;;;6116808;23;20196;-91
2022/04/09 09:04:23;;;;;;;50.05;24.98;;;18.00;1.00;;;;;;6108815;23;20220;-89
2022/04/09 09:06:50;;;;;;;22.90;10.57;;;18.20;1.00;;;;;;6096664;23;20167;-85
2022/04/09 09:09:31;;;;;;;15.55;8.05;;;18.50;1.00;;;;;;6100323;23;20151;-90
2022/04/09 09:12:00;;;;;;;17.38;7.40;;;18.80;1.00;;;;;;6096042;23;20187;-84
2022/04/09 09:14:30;;;;;;;20.42;12.30;;;18.90;1.00;;;;;;6112167;23;20252;-91
2022/04/09 09:17:25;;;;;;;25.02;16.17;;;19.20;1.00;;;;;;6112915;23;20151;-90
2022/04/09 09:19:52;;;;;;;8.98;5.07;;;19.20;1.00;;;;;;6098394;23;20631;-84
2022/04/09 09:22:20;;;;;;;11.70;7.30;;;19.10;1.00;;;;;;6107244;23;20156;-86
2022/04/09 09:25:04;;;;;;;6.68;3.60;;;19.30;1.00;;;;;;6107912;23;20199;-86
2022/04/09 09:27:31;;;;;;;12.25;7.50;;;19.30;1.00;;;;;;6095755;23;20184;-85
2022/04/09 09:29:58;;;;;;;20.83;12.70;;;18.80;1.00;;;;;;6102709;23;20600;-86
2022/04/09 09:32:26;;;;;;;9.95;5.40;;;17.90;1.00;;;;;;6100075;23;20179;-87
2022/04/09 09:34:55;;;;;;;10.13;7.40;;;16.80;1.00;;;;;;6095400;23;20227;-87
2022/04/09 09:37:24;;;;;;;11.38;4.93;;;16.10;1.00;;;;;;6101040;23;20168;-86
2022/04/09 09:39:51;;;;;;;11.35;4.18;;;15.90;1.00;;;;;;6100057;23;20447;-84
2022/04/09 09:42:20;;;;;;;11.50;5.75;;;16.00;1.00;;;;;;6100426;23;20186;-89
2022/04/09 09:44:48;;;;;;;8.07;4.28;;;16.00;1.00;;;;;;6097790;23;20535;-85
2022/04/09 09:47:16;;;;;;;;;;;16.00;1.00;;;;;;6103952;23;20064;-87
2022/04/09 09:49:58;;;;;;;12.10;4.83;;;16.00;1.00;;;;;;6102039;23;20609;-86
2022/04/09 09:52:28;;;;;;;9.93;6.00;;;16.00;1.00;;;;;;6108416;23;20466;-86
2022/04/09 09:54:56;;;;;;;10.57;5.50;;;15.60;1.00;;;;;;6112910;23;20174;-89
2022/04/09 09:57:27;;;;;;;13.43;6.00;;;14.90;1.00;;;;;;6109216;23;20161;-85
2022/04/09 09:59:56;;;;;;;7.30;4.93;;;14.30;1.00;;;;;;6102649;23;20641;-86
2022/04/09 10:02:25;;;;;;;9.40;4.83;;;14.00;1.00;;;;;;6100229;23;20172;-85
2022/04/09 10:04:59;;;;;;;10.90;6.93;;;13.80;1.00;;;;;;6098252;23;20171;-84
2022/04/09 10:07:26;;;;;;;22.60;11.63;;;13.50;1.00;;;;;;6096953;23;20073;-87
2022/04/09 10:09:54;;;;;;;12.73;5.40;;;13.00;1.00;;;;;;6096754;23;20174;-86
2022/04/09 10:12:23;;;;;;;9.13;4.97;;;12.60;1.00;;;;;;6095536;23;20630;-86
2022/04/09 10:14:56;;;;;;;28.53;17.07;;;12.30;1.00;;;;;;6100154;23;20663;-87
2022/04/09 10:17:24;;;;;;;9.47;5.27;;;12.20;1.00;;;;;;6099516;23;20193;-86
2022/04/09 10:19:57;;;;;;;20.17;12.73;;;12.10;1.00;;;;;;6097620;23;20227;-87
2022/04/09 10:22:26;;;;;;;17.73;10.67;;;12.20;1.00;;;;;;6097102;23;20479;-86
2022/04/09 10:24:56;;;;;;;25.93;15.83;;;12.30;1.00;;;;;;6097250;23;20667;-88
2022/04/09 10:27:37;;;;;;;12.70;6.77;;;12.20;1.00;;;;;;6099238;23;20169;-85
2022/04/09 10:30:18;;;;;;;22.17;11.03;;;12.00;1.00;;;;;;6096931;23;20085;-86
2022/04/09 10:32:48;;;;;;;17.60;10.10;;;11.90;1.00;;;;;;6097921;23;20588;-85
2022/04/09 10:35:38;;;;;;;15.53;8.97;;;11.90;1.00;;;;;;6098091;23;20170;-84
2022/04/09 10:38:19;;;;;;;20.17;10.93;;;11.70;1.00;;;;;;6098144;23;20160;-89
2022/04/09 10:41:23;;;;;;;16.33;7.60;;;11.60;1.00;;;;;;6098065;23;20154;-84
2022/04/09 10:43:51;;;;;;;23.07;11.13;;;11.60;1.00;;;;;;6102184;23;20187;-84
2022/04/09 10:46:21;;;;;;;23.63;9.57;;;11.70;1.00;;;;;;6097874;23;20169;-84
2022/04/09 10:48:58;;;;;;;17.57;9.37;;;11.80;1.00;;;;;;6101046;23;20168;-87
2022/04/09 10:51:46;;;;;;;13.53;5.00;;;11.80;1.00;;;;;;6103033;23;20158;-89
2022/04/09 10:54:21;;;;;;;13.10;6.00;;;12.00;1.00;;;;;;6097127;23;20181;-83
2022/04/09 10:56:49;;;;;;;7.63;3.83;;;12.10;1.00;;;;;;6097865;23;20157;-83
2022/04/09 10:59:33;;;;;;;15.27;7.07;;;12.10;1.00;;;;;;6099627;23;20499;-84
2022/04/09 11:02:04;;;;;;;13.90;5.87;;;12.10;1.00;;;;;;6099741;23;20168;-85
2022/04/09 11:04:44;;;;;;;9.97;4.10;;;11.90;1.00;;;;;;6100147;23;20220;-86
2022/04/09 11:07:15;;;;;;;13.57;4.63;;;11.50;1.00;;;;;;6099964;23;20182;-88
2022/04/09 11:09:51;;;;;;;17.87;7.90;;;11.50;1.00;;;;;;6099837;23;20197;-84
2022/04/09 11:12:21;;;;;;;12.20;5.87;;;11.60;1.00;;;;;;6098800;23;20161;-84
2022/04/09 11:14:50;;;;;;;20.03;11.83;;;11.70;1.00;;;;;;6096827;23;20197;-83
2022/04/09 11:17:28;;;;;;;36.87;24.57;;;11.70;1.00;;;;;;6096547;23;20189;-84
2022/04/09 11:19:55;;;;;;;12.60;6.87;;;11.80;1.00;;;;;;6096928;23;20529;-84
2022/04/09 11:22:30;;;;;;;23.90;12.13;;;11.80;1.00;;;;;;6095613;23;20180;-84
2022/04/09 11:24:57;;;;;;;16.10;7.00;;;12.00;1.00;;;;;;6097192;23;20170;-84
2022/04/09 11:27:25;;;;;;;18.13;9.13;;;12.10;1.00;;;;;;6095748;23;20506;-84
2022/04/09 11:29:54;;;;;;;7.40;3.40;;;12.20;1.00;;;;;;6097214;23;20236;-84
2022/04/09 11:32:23;;;;;;;14.83;5.63;;;12.40;1.00;;;;;;6105413;23;20544;-83
2022/04/09 11:34:55;;;;;;;13.97;7.33;;;12.50;1.00;;;;;;6097515;23;20193;-83
2022/04/09 11:37:23;;;;;;;29.23;19.60;;;12.60;1.00;;;;;;6095983;23;20174;-83
2022/04/09 11:39:52;;;;;;;10.73;6.70;;;12.70;1.00;;;;;;6099882;23;20520;-84
2022/04/09 11:42:19;;;;;;;21.30;8.97;;;12.70;1.00;;;;;;6100447;23;20469;-84
2022/04/09 11:44:46;;;;;;;22.13;10.70;;;12.70;1.00;;;;;;6101608;23;20236;-84
2022/04/09 11:47:16;;;;;;;10.10;4.43;;;12.70;1.00;;;;;;6096300;23;20609;-84
2022/04/09 11:49:47;;;;;;;11.63;5.00;;;12.50;1.00;;;;;;6096666;23;20646;-83
2022/04/09 11:52:14;;;;;;;13.90;5.83;;;12.20;1.00;;;;;;6097065;23;20670;-84
2022/04/09 11:54:43;;;;;;;14.60;6.90;;;12.10;1.00;;;;;;6096788;23;20248;-85
2022/04/09 11:57:13;;;;;;;10.40;5.93;;;12.10;1.00;;;;;;6099689;23;20208;-86
2022/04/09 11:59:43;;;;;;;14.27;6.47;;;12.00;1.00;;;;;;6099030;23;20173;-85
2022/04/09 12:02:20;;;;;;;16.03;7.23;;;11.90;1.00;;;;;;6097027;23;20537;-83
2022/04/09 12:04:49;;;;;;;10.83;4.70;;;11.80;1.00;;;;;;6096114;23;20200;-86
2022/04/09 12:07:17;;;;;;;22.50;10.50;;;11.90;1.00;;;;;;6096419;23;20555;-83
2022/04/09 12:09:45;;;;;;;29.87;13.43;;;11.90;1.00;;;;;;6098083;23;20248;-86
2022/04/09 12:12:12;;;;;;;36.50;12.77;;;11.90;1.00;;;;;;6097959;23;20169;-85
2022/04/09 12:14:51;;;;;;;22.33;10.47;;;12.00;1.00;;;;;;6097420;23;20655;-86
2022/04/09 12:17:18;;;;;;;18.20;8.37;;;12.30;1.00;;;;;;6096949;23;20159;-84
2022/04/09 12:19:45;;;;;;;55.13;22.90;;;12.50;1.00;;;;;;6098876;23;20170;-85
2022/04/09 12:22:20;;;;;;;22.80;10.70;;;12.40;1.00;;;;;;6096136;23;20181;-84
2022/04/09 12:24:53;;;;;;;33.63;15.67;;;12.20;1.00;;;;;;6099512;23;20206;-85
2022/04/09 12:27:22;;;;;;;15.53;7.30;;;12.00;1.00;;;;;;6096602;23;20157;-84
2022/04/09 12:29:55;;;;;;;13.93;6.60;;;11.80;1.00;;;;;;6096202;23;20525;-85
2022/04/09 12:32:25;;;;;;;7.97;4.27;;;11.50;1.00;;;;;;6096798;23;20203;-85
2022/04/09 12:35:00;;;;;;;14.70;6.93;;;11.50;1.00;;;;;;6097703;23;20745;-84
2022/04/09 12:37:28;;;;;;;;;;;11.30;1.00;;;;;;6099422;23;20032;-85
2022/04/09 12:40:13;;;;;;;7.20;3.17;;;10.90;1.00;;;;;;6098526;23;20191;-84
2022/04/09 12:42:40;;;;;;;21.90;9.03;;;10.40;1.00;;;;;;6101686;23;20158;-86
2022/04/09 12:45:12;;;;;;;4.47;1.80;;;9.90;1.00;;;;;;6096804;23;20555;-85
2022/04/09 12:47:40;;;;;;;10.83;3.97;;;9.50;1.00;;;;;;6105612;23;20224;-84
2022/04/09 12:50:18;;;;;;;5.53;1.90;;;9.10;1.00;;;;;;6099546;23;20172;-84
2022/04/09 12:52:47;;;;;;;4.87;3.30;;;9.10;1.00;;;;;;6111481;23;20190;-84
2022/04/09 12:55:18;;;;;;;9.43;4.50;;;9.20;1.00;;;;;;6098754;23;20200;-85
2022/04/09 12:57:46;;;;;;;54.57;23.27;;;9.30;1.00;;;;;;6109755;23;20178;-85
2022/04/09 13:00:19;;;;;;;6.93;2.03;;;9.60;1.00;;;;;;6102391;23;20231;-85
2022/04/09 13:02:48;;;;;;;9.57;3.87;;;9.90;1.00;;;;;;6100534;23;20164;-85
2022/04/09 13:05:16;;;;;;;3.60;2.27;;;10.20;1.00;;;;;;6100418;23;20178;-85
2022/04/09 13:07:43;;;;;;;4.60;2.43;;;10.30;1.00;;;;;;6096984;23;20232;-85
2022/04/09 13:10:13;;;;;;;6.47;2.50;;;10.50;1.00;;;;;;6096870;23;20627;-83
2022/04/09 13:12:41;;;;;;;11.73;4.63;;;10.70;1.00;;;;;;6096804;23;20239;-85
2022/04/09 13:15:09;;;;;;;11.53;6.33;;;10.70;1.00;;;;;;6097713;23;20194;-84
2022/04/09 13:17:36;;;;;;;4.73;2.43;;;10.90;1.00;;;;;;6100436;23;20227;-84
2022/04/09 13:22:54;;;;;;;8.37;5.00;;;11.10;1.00;;;;;;6062829;23;20234;-84
2022/04/09 13:25:23;;;;;;;6.47;3.53;;;11.30;1.00;;;;;;6096219;23;20225;-85
2022/04/09 13:27:52;;;;;;;7.47;4.70;;;11.30;1.00;;;;;;6103315;23;20582;-84
2022/04/09 13:30:20;;;;;;;12.97;5.80;;;11.10;1.00;;;;;;6106866;23;20168;-90
2022/04/09 13:33:04;;;;;;;6.67;3.93;;;10.80;1.00;;;;;;6110787;23;20216;-89
2022/04/09 13:35:31;;;;;;;7.93;4.57;;;10.50;1.00;;;;;;6109770;23;20184;-84
2022/04/09 13:37:58;;;;;;;6.90;2.83;;;10.10;1.00;;;;;;6101866;23;20174;-85
2022/04/09 13:40:27;;;;;;;5.90;3.40;;;9.80;1.00;;;;;;6102332;23;20173;-84
2022/04/09 13:42:55;;;;;;;4.87;2.80;;;9.60;1.00;;;;;;6103125;23;20196;-84
2022/04/09 13:45:22;;;;;;;5.87;3.67;;;9.50;1.00;;;;;;6099091;23;20231;-87
2022/04/09 13:47:49;;;;;;;13.17;6.97;;;9.40;1.00;;;;;;6097770;23;20627;-86
2022/04/09 13:50:17;;;;;;;7.30;3.90;;;9.40;30.00;;;;;;6095282;23;20239;-84
2022/04/09 13:52:45;;;;;;;10.83;4.57;;;9.40;52.00;;;;;;6108688;23;20207;-85
2022/04/09 13:55:12;;;;;;;4.27;2.67;;;9.30;56.20;;;;;;6094552;23;20189;-86
2022/04/09 13:57:41;;;;;;;2.37;2.17;;;9.00;26.80;;;;;;6100430;23;20167;-85
2022/04/09 14:00:09;;;;;;;6.40;2.60;;;8.70;56.20;;;;;;6103696;23;20198;-86
2022/04/09 14:02:36;;;;;;;5.03;3.43;;;8.50;99.90;;;;;;6106492;23;20194;-88
2022/04/09 14:05:08;;;;;;;9.67;5.33;;;8.40;99.90;;;;;;6098814;23;20185;-85
2022/04/09 14:07:36;;;;;;;7.97;3.73;;;8.30;99.90;;;;;;6101699;23;20680;-86
2022/04/09 14:10:03;;;;;;;7.33;3.87;;;8.40;99.90;;;;;;6095819;23;20555;-86
2022/04/09 14:12:30;;;;;;;5.83;2.40;;;8.50;99.90;;;;;;6098690;23;20695;-86
2022/04/09 14:14:59;;;;;;;5.50;3.30;;;8.70;99.90;;;;;;6096204;23;20191;-85
2022/04/09 14:17:31;;;;;;;6.53;2.90;;;8.70;99.90;;;;;;6104727;23;20188;-90
2022/04/09 14:20:12;;;;;;;3.83;2.20;;;8.90;99.90;;;;;;6105283;23;20172;-88
2022/04/09 14:22:40;;;;;;;5.03;2.30;;;9.00;99.90;;;;;;6096368;23;20961;-86
2022/04/09 14:25:08;;;;;;;48.40;22.00;;;9.00;99.90;;;;;;6101982;23;20147;-87
2022/04/09 14:27:42;;;;;;;24.00;8.83;;;8.90;99.90;;;;;;6107366;23;20178;-89
2022/04/09 14:30:23;;;;;;;7.87;3.97;;;8.80;99.90;;;;;;6111339;23;20167;-89
2022/04/09 14:33:20;;;;;;;25.63;12.83;;;8.70;99.90;;;;;;6105929;23;20229;-90
2022/04/09 14:36:35;;;;;;;6.63;3.93;;;8.60;99.90;;;;;;6111565;23;20267;-86
2022/04/09 14:39:06;;;;;;;8.50;4.27;;;8.60;99.90;;;;;;6067882;23;20176;-85
2022/04/09 14:41:33;;;;;;;4.27;2.57;;;8.50;99.90;;;;;;6098872;23;20183;-87
2022/04/09 14:44:00;;;;;;;12.20;5.70;;;8.50;99.90;;;;;;6095692;23;20175;-85
2022/04/09 14:46:28;;;;;;;13.17;6.50;;;8.40;99.90;;;;;;6110630;23;20186;-87
2022/04/09 14:48:56;;;;;;;8.70;3.87;;;8.30;99.90;;;;;;6094222;23;20176;-86
2022/04/09 14:51:23;;;;;;;6.07;2.40;;;8.10;99.90;;;;;;6099417;23;20174;-88
2022/04/09 14:53:50;;;;;;;2.77;1.40;;;7.80;99.90;;;;;;6096018;23;20193;-87
2022/04/09 14:56:17;;;;;;;3.40;1.40;;;7.50;99.90;;;;;;6102006;23;20192;-87
2022/04/09 14:58:44;;;;;;;2.63;1.53;;;7.20;99.90;;;;;;6102375;23;20545;-88
2022/04/09 15:01:12;;;;;;;2.30;1.53;;;7.00;99.90;;;;;;6096979;23;20180;-88
2022/04/09 15:03:41;;;;;;;3.37;1.50;;;6.80;99.90;;;;;;6098434;23;20236;-87
2022/04/09 15:06:08;;;;;;;2.37;1.60;;;6.90;1.00;;;;;;6100015;23;20176;-89
2022/04/09 15:08:37;;;;;;;2.90;2.15;;;7.10;1.00;;;;;;6100979;23;20223;-85
2022/04/09 15:11:04;;;;;;;7.10;2.80;;;7.30;1.00;;;;;;6097071;23;20942;-85
2022/04/09 15:13:31;;;;;;;4.73;3.00;;;7.50;1.00;;;;;;6101639;23;20197;-86
2022/04/09 15:15:59;;;;;;;7.07;4.23;;;7.50;1.00;;;;;;6101558;23;20218;-86
2022/04/09 15:18:26;;;;;;;5.20;2.60;;;7.50;1.00;;;;;;6097731;23;20524;-85
2022/04/09 15:20:55;;;;;;;13.83;7.00;;;7.30;99.90;;;;;;6098532;23;20168;-87
2022/04/09 15:23:22;;;;;;;18.57;7.77;;;7.20;99.90;;;;;;6096477;23;20568;-87
2022/04/09 15:25:49;;;;;;;9.07;4.30;;;7.10;99.90;;;;;;6100888;23;20168;-86
2022/04/09 15:28:16;;;;;;;4.47;2.80;;;7.10;1.00;;;;;;6098541;23;20181;-85
2022/04/09 15:30:44;;;;;;;5.90;3.43;;;7.10;1.00;;;;;;6097161;23;20179;-87
2022/04/09 15:33:11;;;;;;;7.37;3.27;;;7.10;1.00;;;;;;6098863;23;20173;-87
2022/04/09 15:35:38;;;;;;;3.43;1.60;;;7.10;1.00;;;;;;6097012;23;20191;-88
2022/04/09 15:38:08;;;;;;;2.27;2.00;;;7.10;1.00;;;;;;6098690;23;20180;-88
2022/04/09 15:40:38;;;;;;;5.77;3.27;;;7.10;1.00;;;;;;6099937;23;20541;-88
2022/04/09 15:43:05;;;;;;;4.70;2.20;;;7.10;1.00;;;;;;6096655;23;20722;-87
2022/04/09 15:45:32;;;;;;;11.33;3.73;;;7.10;1.00;;;;;;6098371;23;20619;-88
2022/04/09 15:47:59;;;;;;;6.80;3.10;;;7.10;1.00;;;;;;6097741;23;20184;-87
2022/04/09 15:50:26;;;;;;;7.80;3.43;;;7.10;1.00;;;;;;6097221;23;20200;-87
2022/04/09 15:52:53;;;;;;;4.37;2.30;;;7.20;1.00;;;;;;6097051;23;20170;-86
2022/04/09 15:56:06;;;;;;;7.47;5.07;;;7.10;1.00;;;;;;6111536;23;20205;-89
2022/04/09 15:58:33;;;;;;;4.73;2.50;;;7.10;1.00;;;;;;6111053;23;20541;-87
2022/04/09 16:01:07;;;;;;;4.00;2.70;;;7.10;1.00;;;;;;6109624;23;20254;-87
2022/04/09 16:03:59;;;;;;;7.27;2.97;;;7.20;1.00;;;;;;6115149;23;20181;-90
2022/04/09 16:06:26;;;;;;;32.50;12.23;;;7.30;1.00;;;;;;6110873;23;20173;-85
2022/04/09 16:08:57;;;;;;;4.17;1.90;;;7.40;1.00;;;;;;6112215;23;20198;-85
2022/04/09 16:11:48;;;;;;;4.53;2.30;;;7.50;1.00;;;;;;6115842;23;20160;-89
2022/04/09 16:14:47;;;;;;;3.10;2.10;;;7.50;1.00;;;;;;6116101;23;20192;-90
2022/04/09 16:17:31;;;;;;;7.27;3.00;;;7.50;1.00;;;;;;6118874;23;20188;-86
2022/04/09 16:20:06;;;;;;;3.83;2.00;;;7.40;99.90;;;;;;6119071;23;20168;-89
2022/04/09 16:22:45;;;;;;;8.47;3.87;;;7.20;99.90;;;;;;6112950;23;20160;-86
2022/04/09 16:25:23;;;;;;;18.10;6.97;;;7.10;99.90;;;;;;6115869;23;20162;-85
2022/04/09 16:30:41;;;;;;;5.70;3.10;;;7.00;1.00;;;;;;6098509;23;20166;-85
2022/04/09 16:33:08;;;;;;;5.77;3.80;;;7.00;1.00;;;;;;6100117;23;20674;-87
2022/04/09 16:35:45;;;;;;;8.73;4.60;;;7.00;1.00;;;;;;6115473;23;20196;-89
2022/04/09 16:38:15;;;;;;;18.93;7.90;;;7.00;1.00;;;;;;6119403;23;20167;-90
2022/04/09 16:40:42;;;;;;;8.57;4.50;;;6.90;1.00;;;;;;6114902;23;20180;-85